createdAt,value
2019-04-13T00:03:14.922Z,71.40
2019-04-13T00:08:18.786Z,72.50
2019-04-13T00:13:18.490Z,73.60
2019-04-13T00:18:18.195Z,73.00
2019-04-13T00:23:17.846Z,72.50
2019-04-13T00:28:17.475Z,70.20
2019-04-13T00:33:17.202Z,71.80
2019-04-13T00:38:16.818Z,71.00
2019-04-13T00:43:17.523Z,70.70
2019-04-13T00:48:17.255Z,70.50
2019-04-13T00:53:17.183Z,71.20
2019-04-13T00:58:16.836Z,71.60
2019-04-13T01:03:16.481Z,69.90
2019-04-13T01:08:16.111Z,69.20
2019-04-13T01:13:15.739Z,71.90
2019-04-13T01:18:15.466Z,71.10
2019-04-13T01:23:15.078Z,71.40
2019-04-13T01:28:15.008Z,71.00
2019-04-13T01:33:14.727Z,71.50
2019-04-13T01:38:14.350Z,70.10
2019-04-13T01:43:14.294Z,71.60
2019-04-13T01:48:15.023Z,71.30
2019-04-13T01:53:33.885Z,71.60
2019-04-13T01:58:33.522Z,71.40
2019-04-13T02:03:33.859Z,71.20
2019-04-13T02:08:54.454Z,71.70
2019-04-13T02:13:55.367Z,71.00
2019-04-13T02:18:55.022Z,71.40
2019-04-13T02:23:54.678Z,72.20
2019-04-13T02:28:54.317Z,71.40
2019-04-13T02:33:54.045Z,73.00
2019-04-13T02:38:53.682Z,72.70
2019-04-13T02:43:53.326Z,73.40
2019-04-13T02:48:53.307Z,71.50
2019-04-13T02:53:53.195Z,74.70
2019-04-13T02:58:53.006Z,75.10
2019-04-13T03:03:53.018Z,74.50
2019-04-13T03:08:52.807Z,74.40
2019-04-13T03:13:52.819Z,74.90
2019-04-13T03:19:07.153Z,74.50
2019-04-13T03:24:06.890Z,74.40
2019-04-13T03:29:06.848Z,73.00
2019-04-13T03:34:06.478Z,73.40
2019-04-13T03:39:08.198Z,73.80
2019-04-13T03:44:08.466Z,73.70
2019-04-13T03:49:08.106Z,73.20
2019-04-13T03:54:07.743Z,73.60
2019-04-13T03:59:07.382Z,73.30
2019-04-13T04:04:07.026Z,73.10
2019-04-13T04:09:07.416Z,73.50
2019-04-13T04:14:07.526Z,73.50
2019-04-13T04:19:07.237Z,74.00
2019-04-13T04:24:06.874Z,73.80
2019-04-13T04:29:06.535Z,72.60
2019-04-13T04:34:06.518Z,73.40
2019-04-13T04:39:06.929Z,73.70
2019-04-13T04:44:06.852Z,74.80
2019-04-13T04:49:06.485Z,74.00
2019-04-13T04:54:06.279Z,74.00
2019-04-13T04:59:05.910Z,73.40
2019-04-13T05:04:05.545Z,73.70
2019-04-13T05:09:06.293Z,72.80
2019-04-13T05:14:06.001Z,76.00
2019-04-13T05:19:05.714Z,75.70
2019-04-13T05:24:06.347Z,76.40
2019-04-13T05:29:05.966Z,77.50
2019-04-13T05:34:06.567Z,77.40
2019-04-13T05:39:06.667Z,77.60
2019-04-13T05:44:06.326Z,79.90
2019-04-13T05:49:05.982Z,81.50
2019-04-13T05:54:05.698Z,79.30
2019-04-13T05:59:05.408Z,80.00
2019-04-13T06:04:05.774Z,79.90
2019-04-13T06:09:07.747Z,80.70
2019-04-13T06:14:07.443Z,79.20
2019-04-13T06:19:07.401Z,79.10
2019-04-13T06:24:07.022Z,79.80
2019-04-13T06:29:06.742Z,79.40
2019-04-13T06:34:15.942Z,80.20
2019-04-13T06:39:15.858Z,79.50
2019-04-13T06:44:15.515Z,80.10
2019-04-13T06:49:19.473Z,79.30
2019-04-13T06:54:16.590Z,81.70
2019-04-13T06:59:16.255Z,82.00
2019-04-13T07:04:16.011Z,82.20
2019-04-13T07:09:26.198Z,82.30
2019-04-13T07:14:24.198Z,82.90
2019-04-13T07:19:23.850Z,83.80
2019-04-13T07:24:23.474Z,82.70
2019-04-13T07:29:24.433Z,83.30
2019-04-13T07:34:24.226Z,83.60
2019-04-13T07:39:23.876Z,83.40
2019-04-13T07:44:28.440Z,83.20
2019-04-13T07:49:56.218Z,82.50
2019-04-13T07:54:56.511Z,82.00
2019-04-13T07:59:56.178Z,81.70
2019-04-13T08:04:56.106Z,81.60
2019-04-13T08:09:55.775Z,80.80
2019-04-13T08:14:55.392Z,81.60
2019-04-13T08:20:07.534Z,81.10
2019-04-13T08:25:07.418Z,80.90
2019-04-13T08:30:08.763Z,81.20
2019-04-13T08:35:09.219Z,82.70
2019-04-13T08:40:09.588Z,82.00
2019-04-13T08:45:12.768Z,82.30
2019-04-13T08:50:12.383Z,81.20
2019-04-13T08:55:12.180Z,81.60
2019-04-13T09:00:13.015Z,81.90
2019-04-13T09:05:12.840Z,82.50
2019-04-13T09:10:15.178Z,81.90
2019-04-13T09:15:14.782Z,81.10
2019-04-13T09:20:24.143Z,80.50
2019-04-13T09:25:24.593Z,79.10
2019-04-13T09:30:25.953Z,77.80
2019-04-13T09:35:25.706Z,76.40
2019-04-13T09:40:28.169Z,73.70
2019-04-13T09:45:27.359Z,75.30
2019-04-13T09:50:27.029Z,74.40
2019-04-13T09:55:26.660Z,75.70
2019-04-13T10:00:27.827Z,74.50
2019-04-13T10:05:29.377Z,76.60
2019-04-13T10:10:29.694Z,75.40
2019-04-13T10:15:37.068Z,73.70
2019-04-13T10:20:39.248Z,72.60
2019-04-13T10:25:39.187Z,72.80
2019-04-13T10:30:39.818Z,67.90
2019-04-13T10:35:39.508Z,69.60
2019-04-13T10:40:39.148Z,69.40
2019-04-13T10:46:07.139Z,69.80
2019-04-13T10:51:16.022Z,65.30
2019-04-13T10:56:16.051Z,63.80
2019-04-13T11:01:16.054Z,63.70
2019-04-13T11:06:16.075Z,65.00
2019-04-13T11:11:15.802Z,63.20
2019-04-13T11:16:18.239Z,59.90
2019-04-13T11:21:17.256Z,63.40
2019-04-13T11:26:17.673Z,60.70
2019-04-13T11:31:17.406Z,62.30
2019-04-13T11:36:17.069Z,66.30
2019-04-13T11:41:42.040Z,67.90
2019-04-13T11:46:51.722Z,66.60
2019-04-13T11:51:51.447Z,67.30
2019-04-13T11:56:51.187Z,68.50
2019-04-13T12:02:19.035Z,69.70
2019-04-13T12:07:36.423Z,69.30
2019-04-13T12:12:58.310Z,66.40
2019-04-13T12:18:17.044Z,68.00
2019-04-13T12:23:16.863Z,68.00
2019-04-13T12:28:16.493Z,61.60
2019-04-13T12:33:17.078Z,57.20
2019-04-13T12:38:17.515Z,57.40
2019-04-13T12:43:18.367Z,58.90
2019-04-13T12:48:18.798Z,57.20
2019-04-13T12:53:18.498Z,56.50
2019-04-13T12:58:22.915Z,57.40
2019-04-13T13:03:22.186Z,51.40
2019-04-13T13:08:21.890Z,54.70
2019-04-13T13:13:22.421Z,54.80
2019-04-13T13:18:26.197Z,55.50
2019-04-13T13:23:23.506Z,50.20
2019-04-13T13:28:23.159Z,52.60
2019-04-13T13:33:22.839Z,50.90
2019-04-13T13:38:22.903Z,47.40
2019-04-13T13:43:22.626Z,52.40
2019-04-13T13:48:22.286Z,52.90
2019-04-13T13:53:21.942Z,53.00
2019-04-13T13:58:29.295Z,51.40
2019-04-13T14:03:29.038Z,50.90
2019-04-13T14:08:28.959Z,51.00
2019-04-13T14:13:29.827Z,51.80
2019-04-13T14:18:29.972Z,49.00
2019-04-13T14:23:30.005Z,45.60
2019-04-13T14:28:29.638Z,48.90
2019-04-13T14:33:29.387Z,49.50
2019-04-13T14:38:29.035Z,50.50
2019-04-13T14:43:35.957Z,51.10
2019-04-13T14:48:35.782Z,51.40
2019-04-13T14:53:35.783Z,49.50
2019-04-13T14:58:35.454Z,53.70
2019-04-13T15:03:35.181Z,50.00
2019-04-13T15:08:34.844Z,47.10
2019-04-13T15:13:34.482Z,50.40
2019-04-13T15:18:44.564Z,54.20
2019-04-13T15:23:44.221Z,55.50
2019-04-13T15:28:45.144Z,56.20
2019-04-13T15:33:49.200Z,56.80
2019-04-13T15:38:48.311Z,58.10
2019-04-13T15:43:50.860Z,61.20
2019-04-13T15:48:49.842Z,62.60
2019-04-13T15:53:49.612Z,63.40
2019-04-13T15:58:49.241Z,63.30
2019-04-13T16:03:49.193Z,63.70
2019-04-13T16:09:14.267Z,63.80
2019-04-13T16:14:14.114Z,61.80
2019-04-13T16:19:13.912Z,59.40
2019-04-13T16:24:13.643Z,61.00
2019-04-13T16:29:31.502Z,61.20
2019-04-13T16:35:06.444Z,61.70
2019-04-13T16:40:06.941Z,59.30
2019-04-13T16:45:14.618Z,57.30
2019-04-13T16:50:42.419Z,58.30
2019-04-13T16:55:47.293Z,59.40
2019-04-13T17:01:00.344Z,58.40
2019-04-13T17:06:02.647Z,59.60
2019-04-13T17:11:03.031Z,59.90
2019-04-13T17:16:02.835Z,60.80
2019-04-13T17:21:13.260Z,60.50
2019-04-13T17:26:35.716Z,61.60
2019-04-13T17:32:00.668Z,64.20
2019-04-13T17:37:03.548Z,63.50
2019-04-13T17:42:31.543Z,64.10
2019-04-13T17:47:35.124Z,64.60
2019-04-13T17:52:52.798Z,65.00
2019-04-13T17:58:10.486Z,63.70
2019-04-13T18:03:24.577Z,63.00
2019-04-13T18:08:57.689Z,65.10
2019-04-13T18:14:04.586Z,65.90
2019-04-13T18:19:10.550Z,68.50
2019-04-13T18:24:11.400Z,65.90
2019-04-13T18:29:11.210Z,66.70
2019-04-13T18:34:12.459Z,67.40
2019-04-13T18:39:13.455Z,67.60
2019-04-13T18:44:13.714Z,69.20
2019-04-13T18:49:13.902Z,68.00
2019-04-13T18:54:13.773Z,68.90
2019-04-13T18:59:13.774Z,68.80
2019-04-13T19:04:13.435Z,68.60
2019-04-13T19:09:13.526Z,69.70
2019-04-13T19:14:13.198Z,69.00
2019-04-13T19:19:12.842Z,66.80
2019-04-13T19:24:12.494Z,69.40
2019-04-13T19:29:12.954Z,70.80
2019-04-13T19:34:12.886Z,72.20
2019-04-13T19:39:12.886Z,71.30
2019-04-13T19:44:15.297Z,70.20
2019-04-13T19:49:15.183Z,71.70
2019-04-13T19:54:16.594Z,73.60
2019-04-13T19:59:17.494Z,72.50
2019-04-13T20:04:17.402Z,71.90
2019-04-13T20:09:17.375Z,72.20
2019-04-13T20:14:19.293Z,75.10
2019-04-13T20:19:18.487Z,74.60
2019-04-13T20:24:18.198Z,71.30
2019-04-13T20:29:31.765Z,70.80
2019-04-13T20:34:33.807Z,71.90
2019-04-13T20:39:37.200Z,72.20
2019-04-13T20:44:36.940Z,74.10
2019-04-13T20:49:36.933Z,70.20
2019-04-13T20:54:36.587Z,72.50
2019-04-13T20:59:36.849Z,73.40
2019-04-13T21:04:37.024Z,72.70
2019-04-13T21:09:36.800Z,74.20
2019-04-13T21:14:42.503Z,75.60
2019-04-13T21:19:39.292Z,74.20
2019-04-13T21:24:39.466Z,72.40
2019-04-13T21:29:39.598Z,71.00
2019-04-13T21:34:41.396Z,69.90
2019-04-13T21:39:41.766Z,72.20
2019-04-13T21:44:45.029Z,71.50
2019-04-13T21:49:43.010Z,73.00
2019-04-13T21:54:42.939Z,72.00
2019-04-13T21:59:43.373Z,73.40
2019-04-13T22:04:43.642Z,72.90
2019-04-13T22:09:43.555Z,74.20
2019-04-13T22:14:51.592Z,74.20
2019-04-13T22:19:46.234Z,74.80
2019-04-13T22:24:46.433Z,74.10
2019-04-13T22:29:53.008Z,72.20
2019-04-13T22:34:58.702Z,72.90
2019-04-13T22:39:58.189Z,74.40
2019-04-13T22:45:02.985Z,71.50
2019-04-13T22:50:18.272Z,71.10
2019-04-13T22:55:28.226Z,74.60
2019-04-13T23:00:36.487Z,73.80
2019-04-13T23:05:37.153Z,73.50
2019-04-13T23:10:37.583Z,75.30
2019-04-13T23:15:40.466Z,72.00
2019-04-13T23:20:38.744Z,74.60
2019-04-13T23:25:39.835Z,75.20
2019-04-13T23:30:40.103Z,73.20
2019-04-13T23:35:40.893Z,74.00
2019-04-13T23:40:41.963Z,73.80
2019-04-13T23:45:44.046Z,71.70
2019-04-13T23:50:44.302Z,71.10
2019-04-13T23:55:49.439Z,71.80
